sensor_id;sensor_type;location;lat;lon;timestamp;P1;durP1;ratioP1;P2;durP2;ratioP2
6667;SDS011;3370;47.712;9.082;2023-11-19T00:02:23;2.80;;;2.60;;
6667;SDS011;3370;47.712;9.082;2023-11-19T00:04:49;2.90;;;2.70;;
6667;SDS011;3370;47.712;9.082;2023-11-19T00:07:14;2.87;;;2.67;;
6667;SDS011;3370;47.712;9.082;2023-11-19T00:09:41;3.67;;;3.40;;
6667;SDS011;3370;47.712;9.082;2023-11-19T00:12:08;3.30;;;2.93;;
6667;SDS011;3370;47.712;9.082;2023-11-19T00:14:34;3.50;;;2.77;;
6667;SDS011;3370;47.712;9.082;2023-11-19T00:17:00;3.13;;;2.80;;
6667;SDS011;3370;47.712;9.082;2023-11-19T00:19:26;3.97;;;3.57;;
6667;SDS011;3370;47.712;9.082;2023-11-19T00:21:52;3.20;;;2.67;;
6667;SDS011;3370;47.712;9.082;2023-11-19T00:24:18;5.37;;;3.00;;
6667;SDS011;3370;47.712;9.082;2023-11-19T00:26:45;3.43;;;3.13;;
6667;SDS011;3370;47.712;9.082;2023-11-19T00:29:11;3.83;;;3.30;;
6667;SDS011;3370;47.712;9.082;2023-11-19T00:31:38;3.20;;;2.90;;
6667;SDS011;3370;47.712;9.082;2023-11-19T00:34:04;4.87;;;3.20;;
6667;SDS011;3370;47.712;9.082;2023-11-19T00:36:31;3.93;;;3.37;;
6667;SDS011;3370;47.712;9.082;2023-11-19T00:38:57;3.33;;;3.03;;
6667;SDS011;3370;47.712;9.082;2023-11-19T00:41:23;2.63;;;2.53;;
6667;SDS011;3370;47.712;9.082;2023-11-19T00:43:50;4.60;;;3.20;;
6667;SDS011;3370;47.712;9.082;2023-11-19T00:46:16;3.40;;;3.20;;
6667;SDS011;3370;47.712;9.082;2023-11-19T00:48:42;3.80;;;3.50;;
6667;SDS011;3370;47.712;9.082;2023-11-19T00:51:07;3.20;;;3.00;;
6667;SDS011;3370;47.712;9.082;2023-11-19T00:53:33;3.00;;;2.80;;
6667;SDS011;3370;47.712;9.082;2023-11-19T00:55:59;3.93;;;3.50;;
6667;SDS011;3370;47.712;9.082;2023-11-19T00:58:25;3.47;;;3.17;;
6667;SDS011;3370;47.712;9.082;2023-11-19T01:00:52;3.40;;;3.20;;
6667;SDS011;3370;47.712;9.082;2023-11-19T01:03:17;5.17;;;3.57;;
6667;SDS011;3370;47.712;9.082;2023-11-19T01:05:43;2.97;;;2.87;;
6667;SDS011;3370;47.712;9.082;2023-11-19T01:08:09;5.30;;;3.30;;
6667;SDS011;3370;47.712;9.082;2023-11-19T01:10:38;3.47;;;3.20;;
6667;SDS011;3370;47.712;9.082;2023-11-19T01:13:04;3.17;;;2.97;;
6667;SDS011;3370;47.712;9.082;2023-11-19T01:15:31;3.77;;;3.47;;
6667;SDS011;3370;47.712;9.082;2023-11-19T01:17:57;3.33;;;2.97;;
6667;SDS011;3370;47.712;9.082;2023-11-19T01:20:23;3.10;;;2.80;;
6667;SDS011;3370;47.712;9.082;2023-11-19T01:22:49;3.20;;;3.00;;
6667;SDS011;3370;47.712;9.082;2023-11-19T01:25:16;2.93;;;2.73;;
6667;SDS011;3370;47.712;9.082;2023-11-19T01:27:42;4.57;;;3.20;;
6667;SDS011;3370;47.712;9.082;2023-11-19T01:30:08;2.70;;;2.50;;
6667;SDS011;3370;47.712;9.082;2023-11-19T01:32:37;2.80;;;2.60;;
6667;SDS011;3370;47.712;9.082;2023-11-19T01:35:05;3.60;;;3.30;;
6667;SDS011;3370;47.712;9.082;2023-11-19T01:37:33;2.67;;;2.40;;
6667;SDS011;3370;47.712;9.082;2023-11-19T01:39:59;3.87;;;3.47;;
6667;SDS011;3370;47.712;9.082;2023-11-19T01:42:25;4.63;;;3.17;;
6667;SDS011;3370;47.712;9.082;2023-11-19T01:44:58;4.13;;;3.63;;
6667;SDS011;3370;47.712;9.082;2023-11-19T01:47:27;3.37;;;2.80;;
6667;SDS011;3370;47.712;9.082;2023-11-19T01:49:55;3.10;;;2.90;;
6667;SDS011;3370;47.712;9.082;2023-11-19T01:52:22;2.93;;;2.80;;
6667;SDS011;3370;47.712;9.082;2023-11-19T01:54:50;3.30;;;3.00;;
6667;SDS011;3370;47.712;9.082;2023-11-19T01:57:18;3.23;;;3.03;;
6667;SDS011;3370;47.712;9.082;2023-11-19T01:59:47;3.10;;;2.40;;
6667;SDS011;3370;47.712;9.082;2023-11-19T02:02:16;3.33;;;3.13;;
6667;SDS011;3370;47.712;9.082;2023-11-19T02:04:49;5.07;;;2.37;;
6667;SDS011;3370;47.712;9.082;2023-11-19T02:07:16;7.33;;;3.13;;
6667;SDS011;3370;47.712;9.082;2023-11-19T02:09:45;2.70;;;2.60;;
6667;SDS011;3370;47.712;9.082;2023-11-19T02:12:11;2.83;;;2.63;;
6667;SDS011;3370;47.712;9.082;2023-11-19T02:14:37;3.27;;;2.97;;
6667;SDS011;3370;47.712;9.082;2023-11-19T02:17:03;3.00;;;2.80;;
6667;SDS011;3370;47.712;9.082;2023-11-19T02:19:30;3.13;;;2.93;;
6667;SDS011;3370;47.712;9.082;2023-11-19T02:21:55;2.70;;;2.50;;
6667;SDS011;3370;47.712;9.082;2023-11-19T02:24:22;6.33;;;2.80;;
6667;SDS011;3370;47.712;9.082;2023-11-19T02:29:22;3.37;;;2.37;;
6667;SDS011;3370;47.712;9.082;2023-11-19T02:31:47;4.00;;;2.57;;
6667;SDS011;3370;47.712;9.082;2023-11-19T02:34:13;2.47;;;2.23;;
6667;SDS011;3370;47.712;9.082;2023-11-19T02:36:39;2.77;;;2.60;;
6667;SDS011;3370;47.712;9.082;2023-11-19T02:39:06;2.20;;;1.93;;
6667;SDS011;3370;47.712;9.082;2023-11-19T02:41:36;2.20;;;2.10;;
6667;SDS011;3370;47.712;9.082;2023-11-19T02:44:04;7.90;;;2.90;;
6667;SDS011;3370;47.712;9.082;2023-11-19T02:46:31;3.30;;;3.03;;
6667;SDS011;3370;47.712;9.082;2023-11-19T02:48:57;3.23;;;2.70;;
6667;SDS011;3370;47.712;9.082;2023-11-19T02:51:22;6.00;;;2.43;;
6667;SDS011;3370;47.712;9.082;2023-11-19T02:53:48;3.30;;;2.03;;
6667;SDS011;3370;47.712;9.082;2023-11-19T02:56:14;2.40;;;2.20;;
6667;SDS011;3370;47.712;9.082;2023-11-19T02:58:50;1.90;;;1.80;;
6667;SDS011;3370;47.712;9.082;2023-11-19T03:01:21;2.30;;;2.13;;
6667;SDS011;3370;47.712;9.082;2023-11-19T03:03:55;2.53;;;2.40;;
6667;SDS011;3370;47.712;9.082;2023-11-19T03:06:26;5.33;;;2.37;;
6667;SDS011;3370;47.712;9.082;2023-11-19T03:08:54;2.33;;;2.23;;
6667;SDS011;3370;47.712;9.082;2023-11-19T03:11:20;2.67;;;2.47;;
6667;SDS011;3370;47.712;9.082;2023-11-19T03:13:46;2.60;;;2.50;;
6667;SDS011;3370;47.712;9.082;2023-11-19T03:16:12;2.57;;;2.37;;
6667;SDS011;3370;47.712;9.082;2023-11-19T03:18:38;2.23;;;2.13;;
6667;SDS011;3370;47.712;9.082;2023-11-19T03:21:07;2.60;;;2.17;;
6667;SDS011;3370;47.712;9.082;2023-11-19T03:23:34;2.40;;;2.20;;
6667;SDS011;3370;47.712;9.082;2023-11-19T03:26:00;1.97;;;1.87;;
6667;SDS011;3370;47.712;9.082;2023-11-19T03:28:30;2.50;;;2.30;;
6667;SDS011;3370;47.712;9.082;2023-11-19T03:30:56;2.63;;;2.30;;
6667;SDS011;3370;47.712;9.082;2023-11-19T03:33:22;2.50;;;2.30;;
6667;SDS011;3370;47.712;9.082;2023-11-19T03:35:48;2.10;;;1.83;;
6667;SDS011;3370;47.712;9.082;2023-11-19T03:38:13;2.60;;;2.40;;
6667;SDS011;3370;47.712;9.082;2023-11-19T03:40:39;2.50;;;2.30;;
6667;SDS011;3370;47.712;9.082;2023-11-19T03:43:05;3.27;;;2.20;;
6667;SDS011;3370;47.712;9.082;2023-11-19T03:45:31;2.57;;;2.47;;
6667;SDS011;3370;47.712;9.082;2023-11-19T03:47:57;3.80;;;2.13;;
6667;SDS011;3370;47.712;9.082;2023-11-19T03:50:23;2.53;;;2.40;;
6667;SDS011;3370;47.712;9.082;2023-11-19T03:52:49;2.93;;;2.30;;
6667;SDS011;3370;47.712;9.082;2023-11-19T03:55:14;8.10;;;2.80;;
6667;SDS011;3370;47.712;9.082;2023-11-19T03:57:40;2.60;;;2.50;;
6667;SDS011;3370;47.712;9.082;2023-11-19T04:00:06;2.80;;;2.60;;
6667;SDS011;3370;47.712;9.082;2023-11-19T04:02:36;2.90;;;2.70;;
6667;SDS011;3370;47.712;9.082;2023-11-19T04:05:02;3.40;;;2.60;;
6667;SDS011;3370;47.712;9.082;2023-11-19T04:07:30;2.70;;;2.60;;
6667;SDS011;3370;47.712;9.082;2023-11-19T04:09:56;2.93;;;2.67;;
6667;SDS011;3370;47.712;9.082;2023-11-19T04:12:22;3.60;;;3.20;;
6667;SDS011;3370;47.712;9.082;2023-11-19T04:14:48;3.37;;;2.80;;
6667;SDS011;3370;47.712;9.082;2023-11-19T04:17:14;3.60;;;3.30;;
6667;SDS011;3370;47.712;9.082;2023-11-19T04:19:40;3.33;;;3.10;;
6667;SDS011;3370;47.712;9.082;2023-11-19T04:22:06;4.43;;;2.90;;
6667;SDS011;3370;47.712;9.082;2023-11-19T04:24:34;4.10;;;3.80;;
6667;SDS011;3370;47.712;9.082;2023-11-19T04:27:00;4.47;;;3.40;;
6667;SDS011;3370;47.712;9.082;2023-11-19T04:29:26;4.20;;;3.80;;
6667;SDS011;3370;47.712;9.082;2023-11-19T04:31:52;4.47;;;4.17;;
6667;SDS011;3370;47.712;9.082;2023-11-19T04:34:17;4.73;;;3.63;;
6667;SDS011;3370;47.712;9.082;2023-11-19T04:36:43;3.77;;;3.47;;
6667;SDS011;3370;47.712;9.082;2023-11-19T04:39:09;4.30;;;4.00;;
6667;SDS011;3370;47.712;9.082;2023-11-19T04:41:50;3.97;;;3.67;;
6667;SDS011;3370;47.712;9.082;2023-11-19T04:44:19;4.27;;;3.97;;
6667;SDS011;3370;47.712;9.082;2023-11-19T04:46:46;5.20;;;4.70;;
6667;SDS011;3370;47.712;9.082;2023-11-19T04:49:12;5.00;;;4.60;;
6667;SDS011;3370;47.712;9.082;2023-11-19T04:51:43;4.77;;;4.37;;
6667;SDS011;3370;47.712;9.082;2023-11-19T04:54:13;4.63;;;4.30;;
6667;SDS011;3370;47.712;9.082;2023-11-19T04:56:39;4.80;;;4.40;;
6667;SDS011;3370;47.712;9.082;2023-11-19T04:59:05;4.73;;;4.23;;
6667;SDS011;3370;47.712;9.082;2023-11-19T05:01:32;4.40;;;4.03;;
6667;SDS011;3370;47.712;9.082;2023-11-19T05:03:58;4.20;;;3.90;;
6667;SDS011;3370;47.712;9.082;2023-11-19T05:06:28;5.63;;;4.17;;
6667;SDS011;3370;47.712;9.082;2023-11-19T05:08:55;5.67;;;3.93;;
6667;SDS011;3370;47.712;9.082;2023-11-19T05:11:21;5.07;;;4.67;;
6667;SDS011;3370;47.712;9.082;2023-11-19T05:13:47;4.40;;;4.00;;
6667;SDS011;3370;47.712;9.082;2023-11-19T05:16:13;4.83;;;4.33;;
6667;SDS011;3370;47.712;9.082;2023-11-19T05:18:40;4.90;;;4.00;;
6667;SDS011;3370;47.712;9.082;2023-11-19T05:21:06;6.37;;;4.00;;
6667;SDS011;3370;47.712;9.082;2023-11-19T05:23:32;4.73;;;4.33;;
6667;SDS011;3370;47.712;9.082;2023-11-19T05:26:01;4.80;;;4.30;;
6667;SDS011;3370;47.712;9.082;2023-11-19T05:28:27;4.73;;;4.17;;
6667;SDS011;3370;47.712;9.082;2023-11-19T05:30:53;4.87;;;4.43;;
6667;SDS011;3370;47.712;9.082;2023-11-19T05:33:20;5.67;;;3.70;;
6667;SDS011;3370;47.712;9.082;2023-11-19T05:35:46;4.33;;;3.93;;
6667;SDS011;3370;47.712;9.082;2023-11-19T05:38:12;4.73;;;4.30;;
6667;SDS011;3370;47.712;9.082;2023-11-19T05:40:38;4.63;;;4.20;;
6667;SDS011;3370;47.712;9.082;2023-11-19T05:43:04;4.13;;;3.83;;
6667;SDS011;3370;47.712;9.082;2023-11-19T05:45:31;4.43;;;3.80;;
6667;SDS011;3370;47.712;9.082;2023-11-19T05:47:57;3.10;;;2.80;;
6667;SDS011;3370;47.712;9.082;2023-11-19T05:50:23;4.63;;;3.50;;
6667;SDS011;3370;47.712;9.082;2023-11-19T05:52:49;3.87;;;3.57;;
6667;SDS011;3370;47.712;9.082;2023-11-19T05:55:15;3.23;;;2.93;;
6667;SDS011;3370;47.712;9.082;2023-11-19T05:57:41;4.00;;;3.70;;
6667;SDS011;3370;47.712;9.082;2023-11-19T06:00:07;3.80;;;2.90;;
6667;SDS011;3370;47.712;9.082;2023-11-19T06:02:35;3.47;;;3.17;;
6667;SDS011;3370;47.712;9.082;2023-11-19T06:05:03;3.17;;;2.93;;
6667;SDS011;3370;47.712;9.082;2023-11-19T06:07:31;2.87;;;2.67;;
6667;SDS011;3370;47.712;9.082;2023-11-19T06:09:58;2.80;;;2.60;;
6667;SDS011;3370;47.712;9.082;2023-11-19T06:12:23;2.80;;;2.53;;
6667;SDS011;3370;47.712;9.082;2023-11-19T06:14:49;2.60;;;2.40;;
6667;SDS011;3370;47.712;9.082;2023-11-19T06:17:15;3.37;;;3.10;;
6667;SDS011;3370;47.712;9.082;2023-11-19T06:19:41;2.43;;;2.33;;
6667;SDS011;3370;47.712;9.082;2023-11-19T06:22:06;2.23;;;2.10;;
6667;SDS011;3370;47.712;9.082;2023-11-19T06:24:32;2.30;;;2.20;;
6667;SDS011;3370;47.712;9.082;2023-11-19T06:26:58;2.80;;;2.60;;
6667;SDS011;3370;47.712;9.082;2023-11-19T06:29:24;2.17;;;2.13;;
6667;SDS011;3370;47.712;9.082;2023-11-19T06:31:49;2.20;;;2.10;;
6667;SDS011;3370;47.712;9.082;2023-11-19T06:34:16;2.27;;;2.07;;
6667;SDS011;3370;47.712;9.082;2023-11-19T06:36:41;2.20;;;2.00;;
6667;SDS011;3370;47.712;9.082;2023-11-19T06:39:08;2.40;;;2.30;;
6667;SDS011;3370;47.712;9.082;2023-11-19T06:41:35;1.93;;;1.83;;
6667;SDS011;3370;47.712;9.082;2023-11-19T06:44:03;2.97;;;2.80;;
6667;SDS011;3370;47.712;9.082;2023-11-19T06:46:29;2.50;;;2.40;;
6667;SDS011;3370;47.712;9.082;2023-11-19T06:48:56;2.83;;;2.00;;
6667;SDS011;3370;47.712;9.082;2023-11-19T06:51:22;2.07;;;1.97;;
6667;SDS011;3370;47.712;9.082;2023-11-19T06:53:49;2.67;;;2.47;;
6667;SDS011;3370;47.712;9.082;2023-11-19T06:56:22;2.70;;;1.93;;
6667;SDS011;3370;47.712;9.082;2023-11-19T06:58:52;2.30;;;2.17;;
6667;SDS011;3370;47.712;9.082;2023-11-19T07:01:18;2.07;;;1.97;;
6667;SDS011;3370;47.712;9.082;2023-11-19T07:03:44;3.57;;;2.40;;
6667;SDS011;3370;47.712;9.082;2023-11-19T07:06:11;2.00;;;1.90;;
6667;SDS011;3370;47.712;9.082;2023-11-19T07:08:38;2.40;;;2.30;;
6667;SDS011;3370;47.712;9.082;2023-11-19T07:11:06;2.10;;;2.00;;
6667;SDS011;3370;47.712;9.082;2023-11-19T07:13:31;2.17;;;1.97;;
6667;SDS011;3370;47.712;9.082;2023-11-19T07:15:57;1.70;;;1.70;;
6667;SDS011;3370;47.712;9.082;2023-11-19T07:18:23;2.33;;;2.23;;
6667;SDS011;3370;47.712;9.082;2023-11-19T07:20:50;1.70;;;1.60;;
6667;SDS011;3370;47.712;9.082;2023-11-19T07:23:16;3.17;;;2.00;;
6667;SDS011;3370;47.712;9.082;2023-11-19T07:25:42;2.27;;;2.07;;
6667;SDS011;3370;47.712;9.082;2023-11-19T07:28:11;1.83;;;1.67;;
6667;SDS011;3370;47.712;9.082;2023-11-19T07:30:38;4.20;;;3.70;;
6667;SDS011;3370;47.712;9.082;2023-11-19T07:33:04;2.70;;;2.43;;
6667;SDS011;3370;47.712;9.082;2023-11-19T07:35:31;1.57;;;1.57;;
6667;SDS011;3370;47.712;9.082;2023-11-19T07:37:57;2.03;;;1.60;;
6667;SDS011;3370;47.712;9.082;2023-11-19T07:40:23;1.63;;;1.63;;
6667;SDS011;3370;47.712;9.082;2023-11-19T07:42:49;1.73;;;1.63;;
6667;SDS011;3370;47.712;9.082;2023-11-19T07:45:16;1.80;;;1.77;;
6667;SDS011;3370;47.712;9.082;2023-11-19T07:47:42;2.33;;;2.23;;
6667;SDS011;3370;47.712;9.082;2023-11-19T07:50:12;2.63;;;2.53;;
6667;SDS011;3370;47.712;9.082;2023-11-19T07:52:39;2.93;;;1.93;;
6667;SDS011;3370;47.712;9.082;2023-11-19T07:55:05;3.97;;;2.00;;
6667;SDS011;3370;47.712;9.082;2023-11-19T07:57:31;1.60;;;1.50;;
6667;SDS011;3370;47.712;9.082;2023-11-19T07:59:57;2.13;;;2.03;;
6667;SDS011;3370;47.712;9.082;2023-11-19T08:02:23;2.60;;;1.80;;
6667;SDS011;3370;47.712;9.082;2023-11-19T08:04:49;2.30;;;2.20;;
6667;SDS011;3370;47.712;9.082;2023-11-19T08:07:17;3.30;;;3.00;;
6667;SDS011;3370;47.712;9.082;2023-11-19T08:09:44;2.70;;;2.40;;
6667;SDS011;3370;47.712;9.082;2023-11-19T08:12:10;2.00;;;1.90;;
6667;SDS011;3370;47.712;9.082;2023-11-19T08:14:36;2.50;;;2.00;;
6667;SDS011;3370;47.712;9.082;2023-11-19T08:17:04;2.63;;;1.77;;
6667;SDS011;3370;47.712;9.082;2023-11-19T08:19:30;1.70;;;1.60;;
6667;SDS011;3370;47.712;9.082;2023-11-19T08:21:56;1.60;;;1.47;;
6667;SDS011;3370;47.712;9.082;2023-11-19T08:24:21;4.63;;;4.10;;
6667;SDS011;3370;47.712;9.082;2023-11-19T08:26:47;2.50;;;2.30;;
6667;SDS011;3370;47.712;9.082;2023-11-19T08:29:13;4.00;;;2.03;;
6667;SDS011;3370;47.712;9.082;2023-11-19T08:31:39;1.73;;;1.63;;
6667;SDS011;3370;47.712;9.082;2023-11-19T08:34:05;1.77;;;1.67;;
6667;SDS011;3370;47.712;9.082;2023-11-19T08:36:33;1.20;;;1.20;;
6667;SDS011;3370;47.712;9.082;2023-11-19T08:39:00;1.20;;;1.20;;
6667;SDS011;3370;47.712;9.082;2023-11-19T08:41:26;2.50;;;1.40;;
6667;SDS011;3370;47.712;9.082;2023-11-19T08:43:52;1.60;;;1.50;;
6667;SDS011;3370;47.712;9.082;2023-11-19T08:46:18;3.83;;;1.80;;
6667;SDS011;3370;47.712;9.082;2023-11-19T08:48:43;1.73;;;1.63;;
6667;SDS011;3370;47.712;9.082;2023-11-19T08:51:11;2.80;;;1.80;;
6667;SDS011;3370;47.712;9.082;2023-11-19T08:53:38;1.87;;;1.20;;
6667;SDS011;3370;47.712;9.082;2023-11-19T08:56:03;1.53;;;1.43;;
6667;SDS011;3370;47.712;9.082;2023-11-19T08:58:30;1.23;;;1.10;;
6667;SDS011;3370;47.712;9.082;2023-11-19T09:00:56;1.30;;;1.20;;
6667;SDS011;3370;47.712;9.082;2023-11-19T09:03:22;2.60;;;1.37;;
6667;SDS011;3370;47.712;9.082;2023-11-19T09:05:49;1.30;;;1.30;;
6667;SDS011;3370;47.712;9.082;2023-11-19T09:08:14;7.03;;;1.70;;
6667;SDS011;3370;47.712;9.082;2023-11-19T09:10:40;1.10;;;1.10;;
6667;SDS011;3370;47.712;9.082;2023-11-19T09:13:06;1.00;;;1.00;;
6667;SDS011;3370;47.712;9.082;2023-11-19T09:15:32;1.13;;;1.07;;
6667;SDS011;3370;47.712;9.082;2023-11-19T09:17:58;1.23;;;1.07;;
6667;SDS011;3370;47.712;9.082;2023-11-19T09:20:24;1.10;;;1.00;;
6667;SDS011;3370;47.712;9.082;2023-11-19T09:22:50;0.90;;;0.90;;
6667;SDS011;3370;47.712;9.082;2023-11-19T09:25:16;1.40;;;0.90;;
6667;SDS011;3370;47.712;9.082;2023-11-19T09:27:43;5.33;;;1.43;;
6667;SDS011;3370;47.712;9.082;2023-11-19T09:30:09;1.00;;;1.00;;
6667;SDS011;3370;47.712;9.082;2023-11-19T09:32:35;1.10;;;1.10;;
6667;SDS011;3370;47.712;9.082;2023-11-19T09:35:03;1.33;;;1.10;;
6667;SDS011;3370;47.712;9.082;2023-11-19T09:37:29;2.10;;;1.00;;
6667;SDS011;3370;47.712;9.082;2023-11-19T09:39:55;1.47;;;1.40;;
6667;SDS011;3370;47.712;9.082;2023-11-19T09:42:21;2.03;;;1.40;;
6667;SDS011;3370;47.712;9.082;2023-11-19T09:44:49;1.43;;;1.33;;
6667;SDS011;3370;47.712;9.082;2023-11-19T09:47:16;1.20;;;1.20;;
6667;SDS011;3370;47.712;9.082;2023-11-19T09:49:44;1.47;;;0.90;;
6667;SDS011;3370;47.712;9.082;2023-11-19T09:52:10;0.80;;;0.80;;
6667;SDS011;3370;47.712;9.082;2023-11-19T09:54:36;2.00;;;1.07;;
6667;SDS011;3370;47.712;9.082;2023-11-19T09:57:02;2.83;;;1.20;;
6667;SDS011;3370;47.712;9.082;2023-11-19T09:59:29;1.10;;;1.10;;
6667;SDS011;3370;47.712;9.082;2023-11-19T10:01:56;0.90;;;0.90;;
6667;SDS011;3370;47.712;9.082;2023-11-19T10:04:22;2.00;;;1.17;;
6667;SDS011;3370;47.712;9.082;2023-11-19T10:06:49;1.63;;;0.87;;
6667;SDS011;3370;47.712;9.082;2023-11-19T10:09:16;2.30;;;1.23;;
6667;SDS011;3370;47.712;9.082;2023-11-19T10:11:42;1.23;;;1.13;;
6667;SDS011;3370;47.712;9.082;2023-11-19T10:14:08;1.27;;;1.20;;
6667;SDS011;3370;47.712;9.082;2023-11-19T10:16:35;1.70;;;1.00;;
6667;SDS011;3370;47.712;9.082;2023-11-19T10:19:00;0.90;;;0.90;;
6667;SDS011;3370;47.712;9.082;2023-11-19T10:21:26;1.20;;;0.90;;
6667;SDS011;3370;47.712;9.082;2023-11-19T10:23:53;3.40;;;1.27;;
6667;SDS011;3370;47.712;9.082;2023-11-19T10:26:25;0.80;;;0.80;;
6667;SDS011;3370;47.712;9.082;2023-11-19T10:28:52;4.60;;;1.13;;
6667;SDS011;3370;47.712;9.082;2023-11-19T10:31:19;1.17;;;1.10;;
6667;SDS011;3370;47.712;9.082;2023-11-19T10:33:50;2.00;;;1.10;;
6667;SDS011;3370;47.712;9.082;2023-11-19T10:36:16;2.10;;;1.90;;
6667;SDS011;3370;47.712;9.082;2023-11-19T10:38:51;1.30;;;1.30;;
6667;SDS011;3370;47.712;9.082;2023-11-19T10:41:30;0.97;;;0.97;;
6667;SDS011;3370;47.712;9.082;2023-11-19T10:44:00;1.20;;;1.10;;
6667;SDS011;3370;47.712;9.082;2023-11-19T10:46:36;7.03;;;1.27;;
6667;SDS011;3370;47.712;9.082;2023-11-19T10:49:07;1.00;;;1.00;;
6667;SDS011;3370;47.712;9.082;2023-11-19T10:51:34;1.30;;;1.30;;
6667;SDS011;3370;47.712;9.082;2023-11-19T10:54:02;1.33;;;1.23;;
6667;SDS011;3370;47.712;9.082;2023-11-19T10:56:31;1.17;;;0.93;;
6667;SDS011;3370;47.712;9.082;2023-11-19T10:58:59;1.27;;;1.10;;
6667;SDS011;3370;47.712;9.082;2023-11-19T11:01:34;3.03;;;1.30;;
6667;SDS011;3370;47.712;9.082;2023-11-19T11:04:12;1.20;;;1.20;;
6667;SDS011;3370;47.712;9.082;2023-11-19T11:06:43;2.60;;;1.33;;
6667;SDS011;3370;47.712;9.082;2023-11-19T11:09:09;1.80;;;1.30;;
6667;SDS011;3370;47.712;9.082;2023-11-19T11:11:40;1.23;;;1.20;;
6667;SDS011;3370;47.712;9.082;2023-11-19T11:14:09;1.13;;;1.13;;
6667;SDS011;3370;47.712;9.082;2023-11-19T11:16:37;0.90;;;0.90;;
6667;SDS011;3370;47.712;9.082;2023-11-19T11:19:10;2.80;;;1.20;;
6667;SDS011;3370;47.712;9.082;2023-11-19T11:21:43;1.97;;;1.10;;
6667;SDS011;3370;47.712;9.082;2023-11-19T11:25:08;1.07;;;0.93;;
6667;SDS011;3370;47.712;9.082;2023-11-19T11:31:16;1.10;;;1.10;;
6667;SDS011;3370;47.712;9.082;2023-11-19T11:39:39;1.00;;;1.00;;
6667;SDS011;3370;47.712;9.082;2023-11-19T11:44:59;2.10;;;0.90;;
6667;SDS011;3370;47.712;9.082;2023-11-19T11:47:25;1.23;;;1.13;;
6667;SDS011;3370;47.712;9.082;2023-11-19T11:50:15;0.93;;;0.93;;
6667;SDS011;3370;47.712;9.082;2023-11-19T11:55:27;2.10;;;1.07;;
6667;SDS011;3370;47.712;9.082;2023-11-19T11:57:58;1.10;;;1.10;;
6667;SDS011;3370;47.712;9.082;2023-11-19T12:00:38;9.93;;;1.10;;
6667;SDS011;3370;47.712;9.082;2023-11-19T12:03:06;1.30;;;1.20;;
6667;SDS011;3370;47.712;9.082;2023-11-19T12:05:33;1.00;;;1.00;;
6667;SDS011;3370;47.712;9.082;2023-11-19T12:08:10;1.40;;;1.30;;
6667;SDS011;3370;47.712;9.082;2023-11-19T12:13:15;1.30;;;1.20;;
6667;SDS011;3370;47.712;9.082;2023-11-19T12:16:08;0.87;;;0.87;;
6667;SDS011;3370;47.712;9.082;2023-11-19T12:18:33;1.50;;;0.90;;
6667;SDS011;3370;47.712;9.082;2023-11-19T12:20:59;1.10;;;1.10;;
6667;SDS011;3370;47.712;9.082;2023-11-19T12:23:28;0.77;;;0.77;;
6667;SDS011;3370;47.712;9.082;2023-11-19T12:25:55;0.80;;;0.80;;
6667;SDS011;3370;47.712;9.082;2023-11-19T12:28:22;1.27;;;1.17;;
6667;SDS011;3370;47.712;9.082;2023-11-19T12:30:49;1.23;;;0.90;;
6667;SDS011;3370;47.712;9.082;2023-11-19T12:33:16;1.20;;;1.10;;
6667;SDS011;3370;47.712;9.082;2023-11-19T12:35:42;1.10;;;1.10;;
6667;SDS011;3370;47.712;9.082;2023-11-19T12:38:20;1.30;;;1.20;;
6667;SDS011;3370;47.712;9.082;2023-11-19T12:41:03;1.23;;;1.23;;
6667;SDS011;3370;47.712;9.082;2023-11-19T12:43:36;1.40;;;1.30;;
6667;SDS011;3370;47.712;9.082;2023-11-19T12:46:23;1.23;;;1.23;;
6667;SDS011;3370;47.712;9.082;2023-11-19T12:48:49;1.90;;;1.10;;
6667;SDS011;3370;47.712;9.082;2023-11-19T12:51:16;3.47;;;1.13;;
6667;SDS011;3370;47.712;9.082;2023-11-19T12:53:49;1.10;;;1.10;;
6667;SDS011;3370;47.712;9.082;2023-11-19T12:56:23;1.20;;;1.20;;
6667;SDS011;3370;47.712;9.082;2023-11-19T12:58:49;1.30;;;1.30;;
6667;SDS011;3370;47.712;9.082;2023-11-19T13:01:19;1.47;;;1.37;;
6667;SDS011;3370;47.712;9.082;2023-11-19T13:03:46;1.20;;;1.20;;
6667;SDS011;3370;47.712;9.082;2023-11-19T13:06:14;1.33;;;1.33;;
6667;SDS011;3370;47.712;9.082;2023-11-19T13:08:44;3.67;;;1.50;;
6667;SDS011;3370;47.712;9.082;2023-11-19T13:11:30;1.30;;;1.20;;
6667;SDS011;3370;47.712;9.082;2023-11-19T13:14:02;2.10;;;1.30;;
6667;SDS011;3370;47.712;9.082;2023-11-19T13:16:29;1.00;;;1.00;;
6667;SDS011;3370;47.712;9.082;2023-11-19T13:18:56;1.10;;;1.10;;
6667;SDS011;3370;47.712;9.082;2023-11-19T13:21:24;1.27;;;1.20;;
6667;SDS011;3370;47.712;9.082;2023-11-19T13:23:51;1.40;;;1.30;;
6667;SDS011;3370;47.712;9.082;2023-11-19T13:26:16;1.10;;;1.10;;
6667;SDS011;3370;47.712;9.082;2023-11-19T13:28:42;1.50;;;1.40;;
6667;SDS011;3370;47.712;9.082;2023-11-19T13:31:08;1.00;;;1.00;;
6667;SDS011;3370;47.712;9.082;2023-11-19T13:33:35;1.53;;;1.43;;
6667;SDS011;3370;47.712;9.082;2023-11-19T13:36:01;3.90;;;1.20;;
6667;SDS011;3370;47.712;9.082;2023-11-19T13:38:33;2.20;;;1.20;;
6667;SDS011;3370;47.712;9.082;2023-11-19T13:41:03;1.87;;;1.10;;
6667;SDS011;3370;47.712;9.082;2023-11-19T13:43:30;1.30;;;1.20;;
6667;SDS011;3370;47.712;9.082;2023-11-19T13:45:56;2.00;;;1.03;;
6667;SDS011;3370;47.712;9.082;2023-11-19T13:48:23;1.40;;;1.30;;
6667;SDS011;3370;47.712;9.082;2023-11-19T13:50:51;1.00;;;1.00;;
6667;SDS011;3370;47.712;9.082;2023-11-19T13:53:17;1.23;;;1.20;;
6667;SDS011;3370;47.712;9.082;2023-11-19T13:55:43;1.23;;;1.10;;
6667;SDS011;3370;47.712;9.082;2023-11-19T13:58:09;1.27;;;1.27;;
6667;SDS011;3370;47.712;9.082;2023-11-19T14:00:35;1.83;;;1.00;;
6667;SDS011;3370;47.712;9.082;2023-11-19T14:03:01;1.70;;;1.30;;
6667;SDS011;3370;47.712;9.082;2023-11-19T14:05:28;2.23;;;1.50;;
6667;SDS011;3370;47.712;9.082;2023-11-19T14:07:53;0.97;;;0.97;;
6667;SDS011;3370;47.712;9.082;2023-11-19T14:10:21;1.33;;;1.20;;
6667;SDS011;3370;47.712;9.082;2023-11-19T14:12:48;0.80;;;0.80;;
6667;SDS011;3370;47.712;9.082;2023-11-19T14:15:15;1.60;;;1.40;;
6667;SDS011;3370;47.712;9.082;2023-11-19T14:17:44;2.20;;;1.00;;
6667;SDS011;3370;47.712;9.082;2023-11-19T14:20:09;1.10;;;1.00;;
6667;SDS011;3370;47.712;9.082;2023-11-19T14:22:42;1.27;;;1.20;;
6667;SDS011;3370;47.712;9.082;2023-11-19T14:25:09;1.90;;;1.30;;
6667;SDS011;3370;47.712;9.082;2023-11-19T14:27:40;1.10;;;1.10;;
6667;SDS011;3370;47.712;9.082;2023-11-19T14:30:11;1.10;;;1.10;;
6667;SDS011;3370;47.712;9.082;2023-11-19T14:32:41;1.33;;;1.10;;
6667;SDS011;3370;47.712;9.082;2023-11-19T14:35:09;1.10;;;1.10;;
6667;SDS011;3370;47.712;9.082;2023-11-19T14:37:35;1.00;;;1.00;;
6667;SDS011;3370;47.712;9.082;2023-11-19T14:40:01;1.30;;;1.20;;
6667;SDS011;3370;47.712;9.082;2023-11-19T14:42:31;1.20;;;1.20;;
6667;SDS011;3370;47.712;9.082;2023-11-19T14:44:57;1.10;;;1.07;;
6667;SDS011;3370;47.712;9.082;2023-11-19T14:47:23;1.00;;;1.00;;
6667;SDS011;3370;47.712;9.082;2023-11-19T14:49:49;3.50;;;1.00;;
6667;SDS011;3370;47.712;9.082;2023-11-19T14:52:15;1.23;;;1.07;;
6667;SDS011;3370;47.712;9.082;2023-11-19T14:54:41;1.20;;;1.20;;
6667;SDS011;3370;47.712;9.082;2023-11-19T14:57:07;1.50;;;0.97;;
6667;SDS011;3370;47.712;9.082;2023-11-19T14:59:36;1.03;;;1.03;;
6667;SDS011;3370;47.712;9.082;2023-11-19T15:02:02;1.30;;;1.30;;
6667;SDS011;3370;47.712;9.082;2023-11-19T15:04:29;1.10;;;1.10;;
6667;SDS011;3370;47.712;9.082;2023-11-19T15:06:58;1.07;;;1.07;;
6667;SDS011;3370;47.712;9.082;2023-11-19T15:09:24;0.87;;;0.87;;
6667;SDS011;3370;47.712;9.082;2023-11-19T15:11:53;1.00;;;1.00;;
6667;SDS011;3370;47.712;9.082;2023-11-19T15:14:19;1.00;;;1.00;;
6667;SDS011;3370;47.712;9.082;2023-11-19T15:16:46;1.13;;;1.13;;
6667;SDS011;3370;47.712;9.082;2023-11-19T15:19:12;2.60;;;1.20;;
6667;SDS011;3370;47.712;9.082;2023-11-19T15:21:39;1.30;;;1.20;;
6667;SDS011;3370;47.712;9.082;2023-11-19T15:24:07;2.40;;;1.57;;
6667;SDS011;3370;47.712;9.082;2023-11-19T15:26:34;1.40;;;1.30;;
6667;SDS011;3370;47.712;9.082;2023-11-19T15:29:00;1.57;;;1.10;;
6667;SDS011;3370;47.712;9.082;2023-11-19T15:31:30;2.03;;;1.40;;
6667;SDS011;3370;47.712;9.082;2023-11-19T15:33:56;1.47;;;1.00;;
6667;SDS011;3370;47.712;9.082;2023-11-19T15:36:22;2.57;;;1.70;;
6667;SDS011;3370;47.712;9.082;2023-11-19T15:38:48;1.33;;;1.33;;